Chico, CA (95926)

9:45 AM PDT on October 21, 2014 (GMT -0700)
Western Weather Group | Change Station
CLOSE
Current Station
Personal Weather Station
Location: Chico, CA
Elevation: 207 ft
Nearby Weather Stations

Elev 207 ft 39.76 °N, 121.84 °W | Updated 6 seconds ago

Scattered Clouds
Scattered Clouds
55.4 °F
Feels Like 55.4 °F
N
5.5
Wind Variable Wind from NW
Gusts 5.5 mph

Today
High -- | Low -- °F
--% Chance of Precip.
Yesterday
High -- | Low -- °F
Precip. -- in
7:24 AM 6:19 PM
Waning Crescent, 5% visible
Pressure 30.13 in
Visibility 40.0 miles
Clouds Few 7000 ft
Few 15000 ft
Scattered Clouds 25000 ft
Dew Point 45 °F
Humidity 69%
Rainfall 0.00 in
Snow Depth Not available.
UV 1 out of 12
Pollen 1.50 out of 12
PM2.5 Good
Flu Activity Sporadic
METAR KCIC 211555Z 29006KT 40SM FEW070 FEW150 SCT250 12/07 A3013

More Conditions Fewer Conditions

Pressure 30.13 in
Visibility 40.0 miles
Clouds Few 7000 ft
Few 15000 ft
Scattered Clouds 25000 ft
Dew Point 45 °F
Humidity 69%
Rainfall 0.00 in
Snow Depth Not available.
UV 1 out of 12
Pollen 1.50 out of 12
PM2.5 Good
Flu Activity Sporadic
METAR KCIC 211555Z 29006KT 40SM FEW070 FEW150 SCT250 12/07 A3013

More Conditions Fewer Conditions

10-Day Weather Forecast

Almanac

Astronomy

Oct. 21, 2014 Rise Set
Actual Time 7:24 AM PDT 6:19 PM PDT
Civil Twilight 6:56 AM PDT 6:46 PM PDT
Nautical Twilight 6:25 AM PDT 7:18 PM PDT
Astronomical Twilight 5:53 AM PDT 7:49 PM PDT
Moon 5:13 AM PDT 5:15 PM PDT
Length of Visible Light 11h 50m
Length of Day
10h 55m
Tomorrow will be 2m 28s shorter.
Waning Crescent, 5% of the Moon is Illuminated
Today
Waning Crescent
Oct 23
New
Oct 30
First Quarter
Nov 6
Full
Nov 14
Last Quarter

Today's Extremes

State Highs State Lows

Community

WunderPhotos

Upload Photos

1,763,712 photos uploaded!

Nearby

Air Quality

  Air Quality AQ Index Pollutant
Yesterday Good
PM2.5
Yesterday Good
OZONE
Current Good
PM2.5
Tuesday Good
OZONE
Wednesday Good
OZONE
Thursday Good
OZONE
Friday Good
OZONE
Saturday Good
OZONE

Snow Depth

Station Depth Elevation
CSS Lab 2 in 6900 ft
Independence Lake 1 in 8450 ft
Independence Creek 0 in 6500 ft
Independence Camp 0 in 7000 ft
Truckee #2 0 in 6400 ft

Earthquake Activity

City Distance Mag. Time & Date
No recent earthquake activity has been reported nearby.
Minimum magnitude displayed is 2.5.

Coastal Water Temperatures

Place Temperature
No Stations Reporting

Nearby Weather Stations